sensor_id;sensor_type;location;lat;lon;timestamp;P1;durP1;ratioP1;P2;durP2;ratioP2
17347;SDS011;8791;50.876;4.342;2022-12-15T00:00:46;66.97;;;27.37;;
17347;SDS011;8791;50.876;4.342;2022-12-15T00:03:31;58.67;;;26.60;;
17347;SDS011;8791;50.876;4.342;2022-12-15T00:06:16;55.57;;;26.27;;
17347;SDS011;8791;50.876;4.342;2022-12-15T00:09:00;51.57;;;23.57;;
17347;SDS011;8791;50.876;4.342;2022-12-15T00:11:45;53.83;;;24.83;;
17347;SDS011;8791;50.876;4.342;2022-12-15T00:14:30;53.73;;;25.87;;
17347;SDS011;8791;50.876;4.342;2022-12-15T00:17:14;52.57;;;23.80;;
17347;SDS011;8791;50.876;4.342;2022-12-15T00:20:00;49.60;;;22.60;;
17347;SDS011;8791;50.876;4.342;2022-12-15T00:22:44;53.23;;;23.00;;
17347;SDS011;8791;50.876;4.342;2022-12-15T00:25:29;48.87;;;23.10;;
17347;SDS011;8791;50.876;4.342;2022-12-15T00:28:13;46.00;;;22.37;;
17347;SDS011;8791;50.876;4.342;2022-12-15T00:30:57;56.20;;;22.47;;
17347;SDS011;8791;50.876;4.342;2022-12-15T00:33:42;57.27;;;23.60;;
17347;SDS011;8791;50.876;4.342;2022-12-15T00:36:28;56.07;;;24.93;;
17347;SDS011;8791;50.876;4.342;2022-12-15T00:39:12;56.40;;;25.27;;
17347;SDS011;8791;50.876;4.342;2022-12-15T00:41:39;49.80;;;25.97;;
17347;SDS011;8791;50.876;4.342;2022-12-15T00:44:06;65.97;;;30.13;;
17347;SDS011;8791;50.876;4.342;2022-12-15T00:46:33;67.17;;;31.27;;
17347;SDS011;8791;50.876;4.342;2022-12-15T00:49:17;76.43;;;33.57;;
17347;SDS011;8791;50.876;4.342;2022-12-15T00:52:03;82.27;;;32.57;;
17347;SDS011;8791;50.876;4.342;2022-12-15T00:54:47;67.43;;;31.13;;
17347;SDS011;8791;50.876;4.342;2022-12-15T00:57:32;77.43;;;32.70;;
17347;SDS011;8791;50.876;4.342;2022-12-15T01:00:16;77.03;;;32.57;;
17347;SDS011;8791;50.876;4.342;2022-12-15T01:03:00;76.43;;;28.73;;
17347;SDS011;8791;50.876;4.342;2022-12-15T01:05:51;68.47;;;27.80;;
17347;SDS011;8791;50.876;4.342;2022-12-15T01:08:37;60.47;;;25.93;;
17347;SDS011;8791;50.876;4.342;2022-12-15T01:11:22;65.03;;;26.03;;
17347;SDS011;8791;50.876;4.342;2022-12-15T01:14:06;64.27;;;26.43;;
17347;SDS011;8791;50.876;4.342;2022-12-15T01:16:50;65.87;;;26.43;;
17347;SDS011;8791;50.876;4.342;2022-12-15T01:19:34;61.57;;;25.27;;
17347;SDS011;8791;50.876;4.342;2022-12-15T01:22:19;61.30;;;25.40;;
17347;SDS011;8791;50.876;4.342;2022-12-15T01:24:47;59.93;;;26.17;;
17347;SDS011;8791;50.876;4.342;2022-12-15T01:27:14;52.13;;;25.07;;
17347;SDS011;8791;50.876;4.342;2022-12-15T01:29:41;56.40;;;25.63;;
17347;SDS011;8791;50.876;4.342;2022-12-15T01:32:08;61.47;;;25.50;;
17347;SDS011;8791;50.876;4.342;2022-12-15T01:34:35;62.33;;;24.27;;
17347;SDS011;8791;50.876;4.342;2022-12-15T01:37:02;60.33;;;24.87;;
17347;SDS011;8791;50.876;4.342;2022-12-15T01:39:28;61.77;;;25.10;;
17347;SDS011;8791;50.876;4.342;2022-12-15T01:42:17;55.30;;;23.67;;
17347;SDS011;8791;50.876;4.342;2022-12-15T01:44:43;53.67;;;24.77;;
17347;SDS011;8791;50.876;4.342;2022-12-15T01:47:14;54.60;;;24.67;;
17347;SDS011;8791;50.876;4.342;2022-12-15T01:49:41;54.17;;;26.27;;
17347;SDS011;8791;50.876;4.342;2022-12-15T01:52:11;56.67;;;25.67;;
17347;SDS011;8791;50.876;4.342;2022-12-15T01:54:41;65.33;;;26.90;;
17347;SDS011;8791;50.876;4.342;2022-12-15T01:57:13;62.57;;;26.17;;
17347;SDS011;8791;50.876;4.342;2022-12-15T01:59:46;60.07;;;25.73;;
17347;SDS011;8791;50.876;4.342;2022-12-15T02:02:16;56.13;;;26.03;;
17347;SDS011;8791;50.876;4.342;2022-12-15T02:04:45;58.27;;;26.43;;
17347;SDS011;8791;50.876;4.342;2022-12-15T02:07:13;57.37;;;27.10;;
17347;SDS011;8791;50.876;4.342;2022-12-15T02:09:41;59.67;;;27.73;;
17347;SDS011;8791;50.876;4.342;2022-12-15T02:12:14;66.73;;;27.03;;
17347;SDS011;8791;50.876;4.342;2022-12-15T02:14:57;59.17;;;27.17;;
17347;SDS011;8791;50.876;4.342;2022-12-15T02:17:34;68.73;;;28.10;;
17347;SDS011;8791;50.876;4.342;2022-12-15T02:20:14;58.47;;;26.57;;
17347;SDS011;8791;50.876;4.342;2022-12-15T02:23:20;64.53;;;27.90;;
17347;SDS011;8791;50.876;4.342;2022-12-15T02:29:30;64.10;;;27.17;;
17347;SDS011;8791;50.876;4.342;2022-12-15T02:32:18;71.40;;;28.57;;
17347;SDS011;8791;50.876;4.342;2022-12-15T02:34:52;64.80;;;27.43;;
17347;SDS011;8791;50.876;4.342;2022-12-15T02:37:23;69.23;;;28.57;;
17347;SDS011;8791;50.876;4.342;2022-12-15T02:39:54;69.27;;;28.03;;
17347;SDS011;8791;50.876;4.342;2022-12-15T02:42:21;62.63;;;26.83;;
17347;SDS011;8791;50.876;4.342;2022-12-15T02:44:50;68.17;;;27.27;;
17347;SDS011;8791;50.876;4.342;2022-12-15T02:47:25;67.37;;;27.30;;
17347;SDS011;8791;50.876;4.342;2022-12-15T02:50:02;59.77;;;26.03;;
17347;SDS011;8791;50.876;4.342;2022-12-15T02:52:44;71.87;;;27.27;;
17347;SDS011;8791;50.876;4.342;2022-12-15T02:55:22;60.37;;;26.70;;
17347;SDS011;8791;50.876;4.342;2022-12-15T02:57:58;63.07;;;27.10;;
17347;SDS011;8791;50.876;4.342;2022-12-15T03:00:31;58.33;;;26.40;;
17347;SDS011;8791;50.876;4.342;2022-12-15T03:03:03;66.50;;;27.90;;
17347;SDS011;8791;50.876;4.342;2022-12-15T03:05:30;59.10;;;26.93;;
17347;SDS011;8791;50.876;4.342;2022-12-15T03:07:58;66.37;;;27.43;;
17347;SDS011;8791;50.876;4.342;2022-12-15T03:10:25;64.70;;;26.57;;
17347;SDS011;8791;50.876;4.342;2022-12-15T03:12:52;57.87;;;26.13;;
17347;SDS011;8791;50.876;4.342;2022-12-15T03:15:19;59.70;;;25.87;;
17347;SDS011;8791;50.876;4.342;2022-12-15T03:17:46;56.83;;;26.10;;
17347;SDS011;8791;50.876;4.342;2022-12-15T03:20:14;63.43;;;27.37;;
17347;SDS011;8791;50.876;4.342;2022-12-15T03:22:41;62.53;;;26.50;;
17347;SDS011;8791;50.876;4.342;2022-12-15T03:25:08;56.10;;;25.63;;
17347;SDS011;8791;50.876;4.342;2022-12-15T03:27:35;58.13;;;24.97;;
17347;SDS011;8791;50.876;4.342;2022-12-15T03:30:03;61.13;;;26.80;;
17347;SDS011;8791;50.876;4.342;2022-12-15T03:32:31;65.17;;;26.30;;
17347;SDS011;8791;50.876;4.342;2022-12-15T03:34:58;60.07;;;25.73;;
17347;SDS011;8791;50.876;4.342;2022-12-15T03:37:26;60.17;;;25.17;;
17347;SDS011;8791;50.876;4.342;2022-12-15T03:39:53;57.70;;;26.13;;
17347;SDS011;8791;50.876;4.342;2022-12-15T03:42:20;66.57;;;26.93;;
17347;SDS011;8791;50.876;4.342;2022-12-15T03:45:07;59.20;;;26.60;;
17347;SDS011;8791;50.876;4.342;2022-12-15T03:47:34;58.40;;;25.10;;
17347;SDS011;8791;50.876;4.342;2022-12-15T03:50:05;53.90;;;24.60;;
17347;SDS011;8791;50.876;4.342;2022-12-15T03:52:34;53.57;;;24.23;;
17347;SDS011;8791;50.876;4.342;2022-12-15T03:55:01;60.37;;;26.23;;
17347;SDS011;8791;50.876;4.342;2022-12-15T03:57:29;56.90;;;25.43;;
17347;SDS011;8791;50.876;4.342;2022-12-15T03:59:56;52.30;;;24.77;;
17347;SDS011;8791;50.876;4.342;2022-12-15T04:02:23;60.90;;;25.23;;
17347;SDS011;8791;50.876;4.342;2022-12-15T04:04:50;53.93;;;24.13;;
17347;SDS011;8791;50.876;4.342;2022-12-15T04:07:17;56.93;;;23.87;;
17347;SDS011;8791;50.876;4.342;2022-12-15T04:09:45;57.53;;;23.93;;
17347;SDS011;8791;50.876;4.342;2022-12-15T04:12:12;50.57;;;23.47;;
17347;SDS011;8791;50.876;4.342;2022-12-15T04:14:39;55.30;;;24.13;;
17347;SDS011;8791;50.876;4.342;2022-12-15T04:17:06;53.70;;;23.37;;
17347;SDS011;8791;50.876;4.342;2022-12-15T04:19:33;56.97;;;24.47;;
17347;SDS011;8791;50.876;4.342;2022-12-15T04:22:18;56.40;;;24.07;;
17347;SDS011;8791;50.876;4.342;2022-12-15T04:24:46;51.47;;;24.73;;
17347;SDS011;8791;50.876;4.342;2022-12-15T04:27:30;53.57;;;22.97;;
17347;SDS011;8791;50.876;4.342;2022-12-15T04:30:14;58.63;;;24.33;;
17347;SDS011;8791;50.876;4.342;2022-12-15T04:32:59;58.17;;;23.43;;
17347;SDS011;8791;50.876;4.342;2022-12-15T04:35:44;51.87;;;23.77;;
17347;SDS011;8791;50.876;4.342;2022-12-15T04:38:31;55.03;;;23.43;;
17347;SDS011;8791;50.876;4.342;2022-12-15T04:41:17;63.80;;;23.47;;
17347;SDS011;8791;50.876;4.342;2022-12-15T04:44:04;56.17;;;24.17;;
17347;SDS011;8791;50.876;4.342;2022-12-15T04:46:49;59.27;;;23.27;;
17347;SDS011;8791;50.876;4.342;2022-12-15T04:49:33;51.00;;;22.07;;
17347;SDS011;8791;50.876;4.342;2022-12-15T04:52:17;63.60;;;24.03;;
17347;SDS011;8791;50.876;4.342;2022-12-15T04:55:02;52.33;;;23.03;;
17347;SDS011;8791;50.876;4.342;2022-12-15T04:57:48;47.67;;;21.20;;
17347;SDS011;8791;50.876;4.342;2022-12-15T05:00:32;55.80;;;23.33;;
17347;SDS011;8791;50.876;4.342;2022-12-15T05:03:16;46.13;;;21.93;;
17347;SDS011;8791;50.876;4.342;2022-12-15T05:06:01;51.83;;;22.73;;
17347;SDS011;8791;50.876;4.342;2022-12-15T05:08:45;53.03;;;22.23;;
17347;SDS011;8791;50.876;4.342;2022-12-15T05:11:29;55.97;;;22.70;;
17347;SDS011;8791;50.876;4.342;2022-12-15T05:14:14;52.57;;;22.83;;
17347;SDS011;8791;50.876;4.342;2022-12-15T05:16:59;61.73;;;23.67;;
17347;SDS011;8791;50.876;4.342;2022-12-15T05:19:43;50.87;;;22.77;;
17347;SDS011;8791;50.876;4.342;2022-12-15T05:22:27;51.70;;;22.63;;
17347;SDS011;8791;50.876;4.342;2022-12-15T05:25:11;56.43;;;21.93;;
17347;SDS011;8791;50.876;4.342;2022-12-15T05:27:56;54.63;;;22.70;;
17347;SDS011;8791;50.876;4.342;2022-12-15T05:30:42;50.50;;;21.03;;
17347;SDS011;8791;50.876;4.342;2022-12-15T05:33:26;50.90;;;22.83;;
17347;SDS011;8791;50.876;4.342;2022-12-15T05:35:54;53.23;;;22.57;;
17347;SDS011;8791;50.876;4.342;2022-12-15T05:38:22;55.57;;;22.57;;
17347;SDS011;8791;50.876;4.342;2022-12-15T05:40:49;48.03;;;21.40;;
17347;SDS011;8791;50.876;4.342;2022-12-15T05:43:15;50.13;;;22.77;;
17347;SDS011;8791;50.876;4.342;2022-12-15T05:45:44;54.07;;;22.20;;
17347;SDS011;8791;50.876;4.342;2022-12-15T05:48:10;55.97;;;24.40;;
17347;SDS011;8791;50.876;4.342;2022-12-15T05:50:37;49.63;;;23.30;;
17347;SDS011;8791;50.876;4.342;2022-12-15T05:53:04;58.23;;;23.97;;
17347;SDS011;8791;50.876;4.342;2022-12-15T05:55:31;52.40;;;22.50;;
17347;SDS011;8791;50.876;4.342;2022-12-15T05:57:58;54.67;;;23.40;;
17347;SDS011;8791;50.876;4.342;2022-12-15T06:00:25;55.80;;;23.53;;
17347;SDS011;8791;50.876;4.342;2022-12-15T06:02:53;52.20;;;22.30;;
17347;SDS011;8791;50.876;4.342;2022-12-15T06:05:20;57.33;;;23.73;;
17347;SDS011;8791;50.876;4.342;2022-12-15T06:07:47;51.53;;;22.80;;
17347;SDS011;8791;50.876;4.342;2022-12-15T06:10:14;52.70;;;23.83;;
17347;SDS011;8791;50.876;4.342;2022-12-15T06:12:41;56.80;;;23.30;;
17347;SDS011;8791;50.876;4.342;2022-12-15T06:15:08;52.40;;;22.00;;
17347;SDS011;8791;50.876;4.342;2022-12-15T06:17:35;57.23;;;24.20;;
17347;SDS011;8791;50.876;4.342;2022-12-15T06:20:03;52.87;;;24.60;;
17347;SDS011;8791;50.876;4.342;2022-12-15T06:22:31;57.83;;;24.40;;
17347;SDS011;8791;50.876;4.342;2022-12-15T06:24:59;49.23;;;23.17;;
17347;SDS011;8791;50.876;4.342;2022-12-15T06:27:26;61.47;;;24.80;;
17347;SDS011;8791;50.876;4.342;2022-12-15T06:29:53;61.83;;;26.57;;
17347;SDS011;8791;50.876;4.342;2022-12-15T06:32:20;57.47;;;26.27;;
17347;SDS011;8791;50.876;4.342;2022-12-15T06:34:47;57.60;;;25.63;;
17347;SDS011;8791;50.876;4.342;2022-12-15T06:37:15;65.40;;;26.00;;
17347;SDS011;8791;50.876;4.342;2022-12-15T06:39:42;53.23;;;24.53;;
17347;SDS011;8791;50.876;4.342;2022-12-15T06:42:09;51.57;;;24.17;;
17347;SDS011;8791;50.876;4.342;2022-12-15T06:44:35;62.40;;;24.33;;
17347;SDS011;8791;50.876;4.342;2022-12-15T06:47:02;52.90;;;23.03;;
17347;SDS011;8791;50.876;4.342;2022-12-15T06:49:29;52.23;;;23.63;;
17347;SDS011;8791;50.876;4.342;2022-12-15T06:51:56;52.33;;;23.97;;
17347;SDS011;8791;50.876;4.342;2022-12-15T06:54:25;58.50;;;23.67;;
17347;SDS011;8791;50.876;4.342;2022-12-15T06:56:52;51.23;;;23.80;;
17347;SDS011;8791;50.876;4.342;2022-12-15T06:59:19;51.10;;;24.33;;
17347;SDS011;8791;50.876;4.342;2022-12-15T07:01:45;58.33;;;25.07;;
17347;SDS011;8791;50.876;4.342;2022-12-15T07:04:13;54.63;;;23.70;;
17347;SDS011;8791;50.876;4.342;2022-12-15T07:06:39;53.70;;;24.33;;
17347;SDS011;8791;50.876;4.342;2022-12-15T07:09:09;56.37;;;24.17;;
17347;SDS011;8791;50.876;4.342;2022-12-15T07:11:41;61.50;;;24.77;;
17347;SDS011;8791;50.876;4.342;2022-12-15T07:14:09;63.70;;;28.90;;
17347;SDS011;8791;50.876;4.342;2022-12-15T07:16:36;59.77;;;24.77;;
17347;SDS011;8791;50.876;4.342;2022-12-15T07:19:05;56.03;;;23.37;;
17347;SDS011;8791;50.876;4.342;2022-12-15T07:21:35;60.33;;;26.13;;
17347;SDS011;8791;50.876;4.342;2022-12-15T07:24:02;60.20;;;26.80;;
17347;SDS011;8791;50.876;4.342;2022-12-15T07:26:30;65.93;;;26.37;;
17347;SDS011;8791;50.876;4.342;2022-12-15T07:28:58;59.57;;;25.13;;
17347;SDS011;8791;50.876;4.342;2022-12-15T07:31:26;52.53;;;24.83;;
17347;SDS011;8791;50.876;4.342;2022-12-15T07:33:52;62.50;;;24.40;;
17347;SDS011;8791;50.876;4.342;2022-12-15T07:36:20;59.07;;;26.57;;
17347;SDS011;8791;50.876;4.342;2022-12-15T07:38:47;55.83;;;23.70;;
17347;SDS011;8791;50.876;4.342;2022-12-15T07:41:14;67.27;;;24.80;;
17347;SDS011;8791;50.876;4.342;2022-12-15T07:43:41;75.40;;;29.37;;
17347;SDS011;8791;50.876;4.342;2022-12-15T07:46:11;58.27;;;25.30;;
17347;SDS011;8791;50.876;4.342;2022-12-15T07:48:38;67.17;;;25.97;;
17347;SDS011;8791;50.876;4.342;2022-12-15T07:51:05;62.70;;;25.23;;
17347;SDS011;8791;50.876;4.342;2022-12-15T07:53:33;58.00;;;25.33;;
17347;SDS011;8791;50.876;4.342;2022-12-15T07:56:01;66.27;;;27.13;;
17347;SDS011;8791;50.876;4.342;2022-12-15T07:58:30;56.93;;;25.87;;
17347;SDS011;8791;50.876;4.342;2022-12-15T08:00:58;63.47;;;25.13;;
17347;SDS011;8791;50.876;4.342;2022-12-15T08:03:28;63.43;;;26.10;;
17347;SDS011;8791;50.876;4.342;2022-12-15T08:05:55;65.73;;;26.03;;
17347;SDS011;8791;50.876;4.342;2022-12-15T08:08:22;56.23;;;25.07;;
17347;SDS011;8791;50.876;4.342;2022-12-15T08:10:49;57.13;;;25.53;;
17347;SDS011;8791;50.876;4.342;2022-12-15T08:13:16;61.27;;;25.93;;
17347;SDS011;8791;50.876;4.342;2022-12-15T08:15:44;61.33;;;25.40;;
17347;SDS011;8791;50.876;4.342;2022-12-15T08:18:11;61.13;;;24.87;;
17347;SDS011;8791;50.876;4.342;2022-12-15T08:20:39;65.83;;;25.53;;
17347;SDS011;8791;50.876;4.342;2022-12-15T08:23:07;68.27;;;25.87;;
17347;SDS011;8791;50.876;4.342;2022-12-15T08:25:34;60.27;;;24.43;;
17347;SDS011;8791;50.876;4.342;2022-12-15T08:28:01;69.03;;;24.43;;
17347;SDS011;8791;50.876;4.342;2022-12-15T08:30:29;65.97;;;25.90;;
17347;SDS011;8791;50.876;4.342;2022-12-15T08:32:57;54.87;;;24.20;;
17347;SDS011;8791;50.876;4.342;2022-12-15T08:35:24;56.23;;;24.27;;
17347;SDS011;8791;50.876;4.342;2022-12-15T08:37:56;56.07;;;25.33;;
17347;SDS011;8791;50.876;4.342;2022-12-15T08:40:25;65.90;;;25.30;;
17347;SDS011;8791;50.876;4.342;2022-12-15T08:42:52;62.30;;;25.37;;
17347;SDS011;8791;50.876;4.342;2022-12-15T08:45:19;65.17;;;25.03;;
17347;SDS011;8791;50.876;4.342;2022-12-15T08:47:46;62.23;;;25.93;;
17347;SDS011;8791;50.876;4.342;2022-12-15T08:50:14;58.57;;;26.13;;
17347;SDS011;8791;50.876;4.342;2022-12-15T08:52:41;59.80;;;24.97;;
17347;SDS011;8791;50.876;4.342;2022-12-15T08:55:09;56.97;;;25.20;;
17347;SDS011;8791;50.876;4.342;2022-12-15T08:57:37;55.07;;;24.37;;
17347;SDS011;8791;50.876;4.342;2022-12-15T09:00:05;62.13;;;25.33;;
17347;SDS011;8791;50.876;4.342;2022-12-15T09:02:33;53.40;;;24.87;;
17347;SDS011;8791;50.876;4.342;2022-12-15T09:05:08;55.07;;;24.57;;
17347;SDS011;8791;50.876;4.342;2022-12-15T09:07:35;53.13;;;22.77;;
17347;SDS011;8791;50.876;4.342;2022-12-15T09:10:02;55.60;;;23.67;;
17347;SDS011;8791;50.876;4.342;2022-12-15T09:12:31;53.03;;;23.27;;
17347;SDS011;8791;50.876;4.342;2022-12-15T09:14:58;52.70;;;23.53;;
17347;SDS011;8791;50.876;4.342;2022-12-15T09:17:36;53.37;;;23.87;;
17347;SDS011;8791;50.876;4.342;2022-12-15T09:20:03;56.53;;;23.73;;
17347;SDS011;8791;50.876;4.342;2022-12-15T09:22:31;53.90;;;23.90;;
17347;SDS011;8791;50.876;4.342;2022-12-15T09:24:57;51.50;;;23.43;;
17347;SDS011;8791;50.876;4.342;2022-12-15T09:27:35;56.07;;;23.40;;
17347;SDS011;8791;50.876;4.342;2022-12-15T09:30:02;48.23;;;21.97;;
17347;SDS011;8791;50.876;4.342;2022-12-15T09:32:29;49.70;;;22.90;;
17347;SDS011;8791;50.876;4.342;2022-12-15T09:34:57;56.53;;;22.87;;
17347;SDS011;8791;50.876;4.342;2022-12-15T09:37:24;55.90;;;22.93;;
17347;SDS011;8791;50.876;4.342;2022-12-15T09:39:50;58.87;;;23.23;;
17347;SDS011;8791;50.876;4.342;2022-12-15T09:42:21;59.60;;;26.13;;
17347;SDS011;8791;50.876;4.342;2022-12-15T09:44:54;58.43;;;25.23;;
17347;SDS011;8791;50.876;4.342;2022-12-15T09:47:28;57.63;;;25.17;;
17347;SDS011;8791;50.876;4.342;2022-12-15T09:50:02;57.17;;;24.67;;
17347;SDS011;8791;50.876;4.342;2022-12-15T09:52:37;52.00;;;24.27;;
17347;SDS011;8791;50.876;4.342;2022-12-15T09:55:15;57.07;;;24.33;;
17347;SDS011;8791;50.876;4.342;2022-12-15T09:57:46;51.57;;;23.67;;
17347;SDS011;8791;50.876;4.342;2022-12-15T10:00:18;49.57;;;23.00;;
17347;SDS011;8791;50.876;4.342;2022-12-15T10:05:56;50.53;;;22.80;;
17347;SDS011;8791;50.876;4.342;2022-12-15T10:08:30;54.80;;;22.63;;
17347;SDS011;8791;50.876;4.342;2022-12-15T10:10:59;55.90;;;25.47;;
17347;SDS011;8791;50.876;4.342;2022-12-15T10:13:30;59.27;;;27.13;;
17347;SDS011;8791;50.876;4.342;2022-12-15T10:16:10;63.73;;;26.37;;
17347;SDS011;8791;50.876;4.342;2022-12-15T10:18:45;67.20;;;29.47;;
17347;SDS011;8791;50.876;4.342;2022-12-15T10:21:18;62.47;;;27.63;;
17347;SDS011;8791;50.876;4.342;2022-12-15T10:23:46;60.63;;;27.37;;
17347;SDS011;8791;50.876;4.342;2022-12-15T10:26:16;56.87;;;24.77;;
17347;SDS011;8791;50.876;4.342;2022-12-15T10:29:01;56.40;;;24.03;;
17347;SDS011;8791;50.876;4.342;2022-12-15T10:31:37;52.77;;;24.63;;
17347;SDS011;8791;50.876;4.342;2022-12-15T10:34:24;52.80;;;24.30;;
17347;SDS011;8791;50.876;4.342;2022-12-15T10:36:53;52.93;;;24.27;;
17347;SDS011;8791;50.876;4.342;2022-12-15T10:39:21;56.07;;;23.40;;
17347;SDS011;8791;50.876;4.342;2022-12-15T10:44:38;51.97;;;22.47;;
17347;SDS011;8791;50.876;4.342;2022-12-15T10:47:10;53.77;;;24.07;;
17347;SDS011;8791;50.876;4.342;2022-12-15T10:49:41;58.77;;;26.07;;
17347;SDS011;8791;50.876;4.342;2022-12-15T10:52:13;60.53;;;24.63;;
17347;SDS011;8791;50.876;4.342;2022-12-15T10:54:45;57.67;;;23.93;;
17347;SDS011;8791;50.876;4.342;2022-12-15T10:57:15;58.83;;;23.47;;
17347;SDS011;8791;50.876;4.342;2022-12-15T10:59:44;64.83;;;25.17;;
17347;SDS011;8791;50.876;4.342;2022-12-15T11:02:23;60.97;;;24.13;;
17347;SDS011;8791;50.876;4.342;2022-12-15T11:04:53;62.53;;;25.63;;
17347;SDS011;8791;50.876;4.342;2022-12-15T11:07:21;70.63;;;26.77;;
17347;SDS011;8791;50.876;4.342;2022-12-15T11:09:48;67.83;;;26.17;;
17347;SDS011;8791;50.876;4.342;2022-12-15T11:12:23;61.30;;;25.20;;
17347;SDS011;8791;50.876;4.342;2022-12-15T11:18:13;75.77;;;28.43;;
17347;SDS011;8791;50.876;4.342;2022-12-15T11:20:49;71.43;;;25.93;;
17347;SDS011;8791;50.876;4.342;2022-12-15T11:23:20;54.37;;;23.53;;
17347;SDS011;8791;50.876;4.342;2022-12-15T11:25:54;51.17;;;22.80;;
17347;SDS011;8791;50.876;4.342;2022-12-15T11:28:27;46.93;;;22.33;;
17347;SDS011;8791;50.876;4.342;2022-12-15T11:31:02;52.93;;;21.47;;
17347;SDS011;8791;50.876;4.342;2022-12-15T11:33:36;45.70;;;21.27;;
17347;SDS011;8791;50.876;4.342;2022-12-15T11:36:07;40.77;;;21.30;;
17347;SDS011;8791;50.876;4.342;2022-12-15T11:38:43;46.77;;;22.00;;
17347;SDS011;8791;50.876;4.342;2022-12-15T11:41:18;50.00;;;22.97;;
17347;SDS011;8791;50.876;4.342;2022-12-15T11:44:01;50.43;;;23.13;;
17347;SDS011;8791;50.876;4.342;2022-12-15T11:46:46;55.63;;;21.33;;
17347;SDS011;8791;50.876;4.342;2022-12-15T11:49:39;51.83;;;22.97;;
17347;SDS011;8791;50.876;4.342;2022-12-15T11:52:19;51.07;;;22.27;;
17347;SDS011;8791;50.876;4.342;2022-12-15T11:55:00;56.83;;;21.57;;
17347;SDS011;8791;50.876;4.342;2022-12-15T11:57:43;51.93;;;22.20;;
17347;SDS011;8791;50.876;4.342;2022-12-15T12:00:20;50.10;;;21.83;;
17347;SDS011;8791;50.876;4.342;2022-12-15T12:02:55;58.97;;;22.00;;
17347;SDS011;8791;50.876;4.342;2022-12-15T12:08:28;56.37;;;22.47;;
17347;SDS011;8791;50.876;4.342;2022-12-15T12:11:11;53.67;;;24.43;;
17347;SDS011;8791;50.876;4.342;2022-12-15T12:13:44;52.30;;;24.13;;
17347;SDS011;8791;50.876;4.342;2022-12-15T12:16:35;45.47;;;22.33;;
17347;SDS011;8791;50.876;4.342;2022-12-15T12:19:10;47.80;;;21.67;;
17347;SDS011;8791;50.876;4.342;2022-12-15T12:21:41;49.23;;;22.23;;
17347;SDS011;8791;50.876;4.342;2022-12-15T12:24:12;44.17;;;22.63;;
17347;SDS011;8791;50.876;4.342;2022-12-15T12:26:45;51.70;;;21.83;;
17347;SDS011;8791;50.876;4.342;2022-12-15T12:29:15;42.80;;;20.27;;
17347;SDS011;8791;50.876;4.342;2022-12-15T12:31:49;41.13;;;20.43;;
17347;SDS011;8791;50.876;4.342;2022-12-15T12:34:23;47.83;;;19.40;;
17347;SDS011;8791;50.876;4.342;2022-12-15T12:36:55;47.30;;;19.73;;
17347;SDS011;8791;50.876;4.342;2022-12-15T12:39:26;44.33;;;20.27;;
17347;SDS011;8791;50.876;4.342;2022-12-15T12:41:55;49.67;;;20.07;;
17347;SDS011;8791;50.876;4.342;2022-12-15T12:44:29;50.30;;;19.53;;
17347;SDS011;8791;50.876;4.342;2022-12-15T12:46:59;40.47;;;19.27;;
17347;SDS011;8791;50.876;4.342;2022-12-15T12:49:36;42.47;;;18.50;;
17347;SDS011;8791;50.876;4.342;2022-12-15T12:52:13;34.20;;;16.43;;
17347;SDS011;8791;50.876;4.342;2022-12-15T12:54:46;35.07;;;15.13;;
17347;SDS011;8791;50.876;4.342;2022-12-15T12:57:37;42.13;;;17.73;;
17347;SDS011;8791;50.876;4.342;2022-12-15T13:00:17;40.73;;;19.13;;
17347;SDS011;8791;50.876;4.342;2022-12-15T13:02:46;47.83;;;17.87;;
17347;SDS011;8791;50.876;4.342;2022-12-15T13:08:17;38.00;;;16.43;;
17347;SDS011;8791;50.876;4.342;2022-12-15T13:14:20;26.73;;;15.23;;
17347;SDS011;8791;50.876;4.342;2022-12-15T13:16:55;53.13;;;20.47;;
17347;SDS011;8791;50.876;4.342;2022-12-15T13:22:35;37.50;;;15.93;;
17347;SDS011;8791;50.876;4.342;2022-12-15T13:31:25;38.90;;;16.30;;
17347;SDS011;8791;50.876;4.342;2022-12-15T13:33:55;40.77;;;16.53;;
17347;SDS011;8791;50.876;4.342;2022-12-15T13:36:45;34.57;;;15.43;;
17347;SDS011;8791;50.876;4.342;2022-12-15T13:42:28;28.23;;;12.43;;
17347;SDS011;8791;50.876;4.342;2022-12-15T13:48:00;19.53;;;9.60;;
17347;SDS011;8791;50.876;4.342;2022-12-15T13:50:38;20.33;;;10.60;;
17347;SDS011;8791;50.876;4.342;2022-12-15T13:53:13;23.63;;;12.43;;
17347;SDS011;8791;50.876;4.342;2022-12-15T13:55:50;23.67;;;12.50;;
17347;SDS011;8791;50.876;4.342;2022-12-15T13:58:20;32.10;;;13.43;;
17347;SDS011;8791;50.876;4.342;2022-12-15T14:00:51;34.33;;;14.03;;
17347;SDS011;8791;50.876;4.342;2022-12-15T14:03:19;41.27;;;14.83;;
17347;SDS011;8791;50.876;4.342;2022-12-15T14:05:48;29.60;;;15.00;;
17347;SDS011;8791;50.876;4.342;2022-12-15T14:08:16;31.57;;;15.07;;
17347;SDS011;8791;50.876;4.342;2022-12-15T14:10:44;30.33;;;14.93;;
17347;SDS011;8791;50.876;4.342;2022-12-15T14:13:16;33.17;;;14.93;;
17347;SDS011;8791;50.876;4.342;2022-12-15T14:15:48;33.83;;;14.93;;
17347;SDS011;8791;50.876;4.342;2022-12-15T14:18:23;31.13;;;15.67;;
17347;SDS011;8791;50.876;4.342;2022-12-15T14:20:52;33.17;;;17.17;;
17347;SDS011;8791;50.876;4.342;2022-12-15T14:23:20;28.83;;;15.83;;
17347;SDS011;8791;50.876;4.342;2022-12-15T14:25:56;38.73;;;17.20;;
17347;SDS011;8791;50.876;4.342;2022-12-15T14:28:29;47.43;;;18.40;;
17347;SDS011;8791;50.876;4.342;2022-12-15T14:31:00;44.50;;;20.17;;
17347;SDS011;8791;50.876;4.342;2022-12-15T14:33:30;42.77;;;21.60;;
17347;SDS011;8791;50.876;4.342;2022-12-15T14:36:00;32.77;;;16.80;;
17347;SDS011;8791;50.876;4.342;2022-12-15T14:38:32;36.70;;;17.03;;
17347;SDS011;8791;50.876;4.342;2022-12-15T14:41:06;31.07;;;15.90;;
17347;SDS011;8791;50.876;4.342;2022-12-15T14:43:46;28.97;;;14.07;;
17347;SDS011;8791;50.876;4.342;2022-12-15T14:46:16;26.87;;;13.77;;
17347;SDS011;8791;50.876;4.342;2022-12-15T14:48:48;26.57;;;13.90;;
17347;SDS011;8791;50.876;4.342;2022-12-15T14:51:19;26.47;;;13.67;;
17347;SDS011;8791;50.876;4.342;2022-12-15T14:53:48;28.50;;;14.70;;
17347;SDS011;8791;50.876;4.342;2022-12-15T14:56:22;34.07;;;14.73;;
17347;SDS011;8791;50.876;4.342;2022-12-15T14:58:54;39.73;;;18.33;;
17347;SDS011;8791;50.876;4.342;2022-12-15T15:01:25;36.70;;;16.00;;
17347;SDS011;8791;50.876;4.342;2022-12-15T15:03:55;30.70;;;14.87;;
17347;SDS011;8791;50.876;4.342;2022-12-15T15:06:26;27.67;;;14.60;;
17347;SDS011;8791;50.876;4.342;2022-12-15T15:08:55;27.63;;;14.33;;
17347;SDS011;8791;50.876;4.342;2022-12-15T15:11:23;32.97;;;14.43;;
17347;SDS011;8791;50.876;4.342;2022-12-15T15:13:54;32.23;;;15.70;;
17347;SDS011;8791;50.876;4.342;2022-12-15T15:16:24;29.47;;;14.80;;
17347;SDS011;8791;50.876;4.342;2022-12-15T15:18:52;30.20;;;16.23;;
17347;SDS011;8791;50.876;4.342;2022-12-15T15:21:21;31.57;;;16.00;;
17347;SDS011;8791;50.876;4.342;2022-12-15T15:23:58;49.03;;;24.40;;
17347;SDS011;8791;50.876;4.342;2022-12-15T15:26:26;56.33;;;24.20;;
17347;SDS011;8791;50.876;4.342;2022-12-15T15:28:53;36.37;;;18.57;;
17347;SDS011;8791;50.876;4.342;2022-12-15T15:31:26;34.03;;;17.93;;
17347;SDS011;8791;50.876;4.342;2022-12-15T15:33:57;38.63;;;19.70;;
17347;SDS011;8791;50.876;4.342;2022-12-15T15:36:26;37.87;;;18.77;;
17347;SDS011;8791;50.876;4.342;2022-12-15T15:38:56;64.77;;;28.77;;
17347;SDS011;8791;50.876;4.342;2022-12-15T15:41:25;49.00;;;23.63;;
17347;SDS011;8791;50.876;4.342;2022-12-15T15:43:54;49.67;;;23.17;;